UWLW

Ulyanovsk East Airport

Ulyanovsk, Russian Federation
TAF UWLW 210745Z 2109/2209 28006G12MPS 8000 SCT033 TEMPO 2109/2115 30009G16MPS SCT030CB TEMPO 2203/2209 33007G14MPS
Issued Valid From Valid To
Jun-21 @ 07:45 UTC
(2 hours ago)
Jun-21 @ 09:00 UTC
(59 minutes ago)
Jun-22 @ 09:00 UTC
(in 23 hours)
Jun-21 @ 09:00 to Jun-22 @ 09:00
TAF UWLW 210745Z 2109/2209 28006G12MPS 8000 SCT033
Wind Visibility Clouds
280° at 12 knots
 Gusting to 23 knots
7,998 meters
  • Scattered at 3,300' AGL
Temporary Jun-21 @ 09:00 to Jun-21 @ 15:00
TEMPO 2109/2115 30009G16MPS SCT030CB
Wind Clouds
300° at 17 knots
 Gusting to 31 knots
  • Scattered at 3,000' AGL
Temporary Jun-22 @ 03:00 to Jun-22 @ 09:00
TEMPO 2203/2209 33007G14MPS
Wind
330° at 14 knots
 Gusting to 27 knots
TAF UWLW 210745Z 2109/2209 28006G12MPS 8000 SCT033 TEMPO 2109/2115 30009G16MPS SCT030CB TEMPO 2203/2209 33007G14MPS
Issued Jun-21 @ 07:45 UTC
(2 hours ago)
Valid From Jun-21 @ 09:00 UTC
(59 minutes ago)
Valid To Jun-22 @ 09:00 UTC
(in 23 hours)
Jun-21 @ 09:00 - Jun-22 @ 09:00
Wind Visibility
280° at 12 knots
 Gusting to 23 knots
7,998 meters
Clouds
  • Scattered at 3,300' AGL
Temporary Jun-21 @ 09:00 - Jun-21 @ 15:00
Wind
300° at 17 knots
 Gusting to 31 knots
Clouds
  • Scattered at 3,000' AGL
Temporary Jun-22 @ 03:00 - Jun-22 @ 09:00
Wind
330° at 14 knots
 Gusting to 27 knots